sensor_id;sensor_type;location;lat;lon;timestamp;pressure;altitude;pressure_sealevel;temperature;humidity
66945;BME280;53853;51.982;5.928;2023-10-08T00:01:16;102132.44;;;18.78;75.03
66945;BME280;53853;51.982;5.928;2023-10-08T00:03:47;102129.75;;;18.78;75.17
66945;BME280;53853;51.982;5.928;2023-10-08T00:06:18;102131.59;;;18.77;75.52
66945;BME280;53853;51.982;5.928;2023-10-08T00:08:51;102148.66;;;18.78;75.57
66945;BME280;53853;51.982;5.928;2023-10-08T00:11:26;102137.84;;;18.78;75.64
66945;BME280;53853;51.982;5.928;2023-10-08T00:13:57;102147.78;;;18.77;75.88
66945;BME280;53853;51.982;5.928;2023-10-08T00:16:28;102135.97;;;18.78;76.15
66945;BME280;53853;51.982;5.928;2023-10-08T00:19:00;102140.38;;;18.79;75.89
66945;BME280;53853;51.982;5.928;2023-10-08T00:21:36;102152.19;;;18.78;75.86
66945;BME280;53853;51.982;5.928;2023-10-08T00:24:09;102160.13;;;18.80;75.94
66945;BME280;53853;51.982;5.928;2023-10-08T00:26:39;102172.78;;;18.79;75.83
66945;BME280;53853;51.982;5.928;2023-10-08T00:29:10;102172.78;;;18.79;75.86
66945;BME280;53853;51.982;5.928;2023-10-08T00:31:48;102168.22;;;18.80;76.00
66945;BME280;53853;51.982;5.928;2023-10-08T00:34:19;102178.19;;;18.79;76.20
66945;BME280;53853;51.982;5.928;2023-10-08T00:36:49;102176.50;;;18.78;76.64
66945;BME280;53853;51.982;5.928;2023-10-08T00:39:21;102182.72;;;18.79;76.74
66945;BME280;53853;51.982;5.928;2023-10-08T00:42:01;102165.84;;;18.77;76.30
66945;BME280;53853;51.982;5.928;2023-10-08T00:44:33;102169.38;;;18.77;76.51
66945;BME280;53853;51.982;5.928;2023-10-08T00:47:08;102172.09;;;18.77;76.45
66945;BME280;53853;51.982;5.928;2023-10-08T00:49:39;102168.38;;;18.78;76.34
66945;BME280;53853;51.982;5.928;2023-10-08T00:52:22;102156.06;;;18.76;76.49
66945;BME280;53853;51.982;5.928;2023-10-08T00:55:09;102157.75;;;18.77;77.05
66945;BME280;53853;51.982;5.928;2023-10-08T00:57:48;102154.22;;;18.76;77.01
66945;BME280;53853;51.982;5.928;2023-10-08T01:00:21;102150.66;;;18.76;76.61
66945;BME280;53853;51.982;5.928;2023-10-08T01:02:59;102156.06;;;18.76;77.00
66945;BME280;53853;51.982;5.928;2023-10-08T01:05:37;102154.22;;;18.76;76.80
66945;BME280;53853;51.982;5.928;2023-10-08T01:08:14;102156.06;;;18.76;76.83
66945;BME280;53853;51.982;5.928;2023-10-08T01:10:51;102151.53;;;18.76;76.76
66945;BME280;53853;51.982;5.928;2023-10-08T01:13:30;102147.97;;;18.76;76.35
66945;BME280;53853;51.982;5.928;2023-10-08T01:16:09;102142.56;;;18.76;76.23
66945;BME280;53853;51.982;5.928;2023-10-08T01:18:40;102141.91;;;18.74;76.46
66945;BME280;53853;51.982;5.928;2023-10-08T01:21:18;102127.56;;;18.73;76.60
66945;BME280;53853;51.982;5.928;2023-10-08T01:24:04;102136.66;;;18.72;77.17
66945;BME280;53853;51.982;5.928;2023-10-08T01:26:35;102133.13;;;18.72;77.08
66945;BME280;53853;51.982;5.928;2023-10-08T01:29:09;102126.88;;;18.71;76.84
66945;BME280;53853;51.982;5.928;2023-10-08T01:31:46;102133.31;;;18.70;76.78
66945;BME280;53853;51.982;5.928;2023-10-08T01:34:16;102145.09;;;18.69;77.36
66945;BME280;53853;51.982;5.928;2023-10-08T01:36:53;102127.22;;;18.68;77.27
66945;BME280;53853;51.982;5.928;2023-10-08T01:39:25;102140.03;;;18.66;77.66
66945;BME280;53853;51.982;5.928;2023-10-08T01:41:59;102110.50;;;18.64;77.63
66945;BME280;53853;51.982;5.928;2023-10-08T01:44:29;102144.09;;;18.62;77.41
66945;BME280;53853;51.982;5.928;2023-10-08T01:47:00;102146.78;;;18.62;77.48
66945;BME280;53853;51.982;5.928;2023-10-08T01:49:31;102131.63;;;18.61;77.24
66945;BME280;53853;51.982;5.928;2023-10-08T01:52:01;102141.75;;;18.59;77.34
66945;BME280;53853;51.982;5.928;2023-10-08T01:54:42;102146.47;;;18.57;77.48
66945;BME280;53853;51.982;5.928;2023-10-08T01:57:12;102153.56;;;18.58;77.51
66945;BME280;53853;51.982;5.928;2023-10-08T01:59:42;102162.66;;;18.57;77.39
66945;BME280;53853;51.982;5.928;2023-10-08T02:02:12;102169.09;;;18.56;77.20
66945;BME280;53853;51.982;5.928;2023-10-08T02:04:42;102153.91;;;18.55;76.73
66945;BME280;53853;51.982;5.928;2023-10-08T02:07:14;102166.75;;;18.53;76.89
66945;BME280;53853;51.982;5.928;2023-10-08T02:09:47;102182.06;;;18.52;76.81
66945;BME280;53853;51.982;5.928;2023-10-08T02:12:17;102183.09;;;18.51;76.67
66945;BME280;53853;51.982;5.928;2023-10-08T02:14:47;102192.22;;;18.50;76.97
66945;BME280;53853;51.982;5.928;2023-10-08T02:17:17;102198.59;;;18.49;77.27
66945;BME280;53853;51.982;5.928;2023-10-08T02:19:46;102222.06;;;18.49;76.75
66945;BME280;53853;51.982;5.928;2023-10-08T02:22:16;102212.28;;;18.47;76.87
66945;BME280;53853;51.982;5.928;2023-10-08T02:24:49;102222.06;;;18.49;76.61
66945;BME280;53853;51.982;5.928;2023-10-08T02:27:20;102221.41;;;18.46;76.68
66945;BME280;53853;51.982;5.928;2023-10-08T02:29:50;102215.13;;;18.46;77.05
66945;BME280;53853;51.982;5.928;2023-10-08T02:32:19;102193.91;;;18.43;77.10
66945;BME280;53853;51.982;5.928;2023-10-08T02:34:50;102212.97;;;18.41;76.75
66945;BME280;53853;51.982;5.928;2023-10-08T02:37:20;102210.44;;;18.40;77.12
66945;BME280;53853;51.982;5.928;2023-10-08T02:39:52;102212.09;;;18.41;77.38
66945;BME280;53853;51.982;5.928;2023-10-08T02:42:24;102223.06;;;18.39;77.14
66945;BME280;53853;51.982;5.928;2023-10-08T02:44:54;102212.28;;;18.39;77.26
66945;BME280;53853;51.982;5.928;2023-10-08T02:47:27;102224.09;;;18.38;77.40
66945;BME280;53853;51.982;5.928;2023-10-08T02:49:58;102187.47;;;18.36;77.67
66945;BME280;53853;51.982;5.928;2023-10-08T02:52:34;102182.91;;;18.36;77.27
66945;BME280;53853;51.982;5.928;2023-10-08T02:55:07;102238.59;;;18.37;77.24
66945;BME280;53853;51.982;5.928;2023-10-08T02:57:55;102234.19;;;18.36;77.47
66945;BME280;53853;51.982;5.928;2023-10-08T03:00:25;102205.53;;;18.35;77.50
66945;BME280;53853;51.982;5.928;2023-10-08T03:02:57;102203.00;;;18.34;77.96
66945;BME280;53853;51.982;5.928;2023-10-08T03:05:28;102199.28;;;18.35;77.49
66945;BME280;53853;51.982;5.928;2023-10-08T03:08:04;102183.25;;;18.33;77.78
66945;BME280;53853;51.982;5.928;2023-10-08T03:10:40;102188.66;;;18.33;77.39
66945;BME280;53853;51.982;5.928;2023-10-08T03:13:11;102200.47;;;18.32;77.47
66945;BME280;53853;51.982;5.928;2023-10-08T03:15:43;102228.47;;;18.31;77.43
66945;BME280;53853;51.982;5.928;2023-10-08T03:18:25;102214.13;;;18.31;77.81
66945;BME280;53853;51.982;5.928;2023-10-08T03:21:03;102225.94;;;18.29;77.85
66945;BME280;53853;51.982;5.928;2023-10-08T03:23:47;102207.22;;;18.28;77.98
66945;BME280;53853;51.982;5.928;2023-10-08T03:26:20;102214.31;;;18.29;78.32
66945;BME280;53853;51.982;5.928;2023-10-08T03:29:06;102219.69;;;18.29;78.34
66945;BME280;53853;51.982;5.928;2023-10-08T03:31:42;102223.25;;;18.29;78.46
66945;BME280;53853;51.982;5.928;2023-10-08T03:34:22;102227.81;;;18.29;78.89
66945;BME280;53853;51.982;5.928;2023-10-08T03:36:55;102231.34;;;18.29;78.65
66945;BME280;53853;51.982;5.928;2023-10-08T03:39:32;102226.09;;;18.28;79.02
66945;BME280;53853;51.982;5.928;2023-10-08T03:42:23;102222.91;;;18.24;78.94
66945;BME280;53853;51.982;5.928;2023-10-08T03:44:57;102214.13;;;18.22;79.33
66945;BME280;53853;51.982;5.928;2023-10-08T03:47:37;102202.47;;;18.22;78.73
66945;BME280;53853;51.982;5.928;2023-10-08T03:50:13;102211.78;;;18.19;78.98
66945;BME280;53853;51.982;5.928;2023-10-08T03:52:44;102207.38;;;18.18;78.86
66945;BME280;53853;51.982;5.928;2023-10-08T03:55:15;102227.44;;;18.16;78.80
66945;BME280;53853;51.982;5.928;2023-10-08T03:57:56;102250.72;;;18.17;78.69
66945;BME280;53853;51.982;5.928;2023-10-08T04:00:30;102247.34;;;18.15;78.45
66945;BME280;53853;51.982;5.928;2023-10-08T04:03:08;102246.66;;;18.13;78.89
66945;BME280;53853;51.982;5.928;2023-10-08T04:05:38;102255.75;;;18.12;78.60
66945;BME280;53853;51.982;5.928;2023-10-08T04:08:26;102253.06;;;18.12;78.41
66945;BME280;53853;51.982;5.928;2023-10-08T04:11:09;102259.47;;;18.10;78.78
66945;BME280;53853;51.982;5.928;2023-10-08T04:14:00;102263.16;;;18.09;79.17
66945;BME280;53853;51.982;5.928;2023-10-08T04:16:31;102269.41;;;18.10;78.47
66945;BME280;53853;51.982;5.928;2023-10-08T04:19:04;102276.66;;;18.09;78.55
66945;BME280;53853;51.982;5.928;2023-10-08T04:21:34;102286.44;;;18.10;79.15
66945;BME280;53853;51.982;5.928;2023-10-08T04:24:04;102291.00;;;18.10;79.18
66945;BME280;53853;51.982;5.928;2023-10-08T04:26:35;102298.78;;;18.13;78.89
66945;BME280;53853;51.982;5.928;2023-10-08T04:29:10;102319.13;;;18.07;80.04
66945;BME280;53853;51.982;5.928;2023-10-08T04:31:43;102321.97;;;17.98;79.04
66945;BME280;53853;51.982;5.928;2023-10-08T04:34:13;102327.94;;;17.83;78.24
66945;BME280;53853;51.982;5.928;2023-10-08T04:36:49;102331.78;;;17.72;78.09
66945;BME280;53853;51.982;5.928;2023-10-08T04:39:21;102329.69;;;17.58;77.27
66945;BME280;53853;51.982;5.928;2023-10-08T04:41:58;102320.88;;;17.48;77.36
66945;BME280;53853;51.982;5.928;2023-10-08T04:44:36;102315.25;;;17.41;77.27
66945;BME280;53853;51.982;5.928;2023-10-08T04:47:06;102319.44;;;17.35;77.25
66945;BME280;53853;51.982;5.928;2023-10-08T04:49:54;102314.84;;;17.28;77.21
66945;BME280;53853;51.982;5.928;2023-10-08T04:52:24;102303.13;;;17.19;77.08
66945;BME280;53853;51.982;5.928;2023-10-08T04:54:54;102289.47;;;17.12;77.15
66945;BME280;53853;51.982;5.928;2023-10-08T04:57:32;102290.09;;;17.06;77.14
66945;BME280;53853;51.982;5.928;2023-10-08T05:00:06;102304.56;;;17.05;77.17
66945;BME280;53853;51.982;5.928;2023-10-08T05:02:41;102300.34;;;17.02;76.96
66945;BME280;53853;51.982;5.928;2023-10-08T05:05:16;102280.97;;;16.99;76.93
66945;BME280;53853;51.982;5.928;2023-10-08T05:07:56;102304.13;;;16.92;77.21
66945;BME280;53853;51.982;5.928;2023-10-08T05:10:38;102306.28;;;16.88;77.59
66945;BME280;53853;51.982;5.928;2023-10-08T05:13:28;102316.22;;;16.88;77.70
66945;BME280;53853;51.982;5.928;2023-10-08T05:16:04;102314.22;;;16.90;77.33
66945;BME280;53853;51.982;5.928;2023-10-08T05:18:56;102319.59;;;16.90;77.23
66945;BME280;53853;51.982;5.928;2023-10-08T05:21:38;102321.59;;;16.88;77.39
66945;BME280;53853;51.982;5.928;2023-10-08T05:24:19;102311.13;;;16.84;77.78
66945;BME280;53853;51.982;5.928;2023-10-08T05:26:54;102330.13;;;16.83;77.50
66945;BME280;53853;51.982;5.928;2023-10-08T05:29:49;102332.41;;;16.78;77.13
66945;BME280;53853;51.982;5.928;2023-10-08T05:32:40;102334.03;;;16.71;76.88
66945;BME280;53853;51.982;5.928;2023-10-08T05:35:33;102350.66;;;16.66;76.71
66945;BME280;53853;51.982;5.928;2023-10-08T05:38:16;102360.31;;;16.59;76.86
66945;BME280;53853;51.982;5.928;2023-10-08T05:41:05;102359.09;;;16.53;77.11
66945;BME280;53853;51.982;5.928;2023-10-08T05:43:43;102373.53;;;16.52;77.30
66945;BME280;53853;51.982;5.928;2023-10-08T05:46:41;102376.53;;;16.49;76.92
66945;BME280;53853;51.982;5.928;2023-10-08T05:49:21;102388.03;;;16.41;77.01
66945;BME280;53853;51.982;5.928;2023-10-08T05:52:10;102389.66;;;16.34;76.90
66945;BME280;53853;51.982;5.928;2023-10-08T05:54:54;102382.03;;;16.29;76.90
66945;BME280;53853;51.982;5.928;2023-10-08T05:57:42;102373.56;;;16.24;76.96
66945;BME280;53853;51.982;5.928;2023-10-08T06:00:19;102353.34;;;16.20;76.90
66945;BME280;53853;51.982;5.928;2023-10-08T06:03:01;102357.63;;;16.13;77.03
66945;BME280;53853;51.982;5.928;2023-10-08T06:06:03;102388.19;;;16.12;77.06
66945;BME280;53853;51.982;5.928;2023-10-08T06:08:45;102416.09;;;16.11;76.81
66945;BME280;53853;51.982;5.928;2023-10-08T06:11:36;102436.22;;;16.07;76.65
66945;BME280;53853;51.982;5.928;2023-10-08T06:14:08;102431.13;;;16.04;76.45
66945;BME280;53853;51.982;5.928;2023-10-08T06:16:55;102404.53;;;16.01;76.48
66945;BME280;53853;51.982;5.928;2023-10-08T06:19:40;102373.69;;;15.95;76.67
66945;BME280;53853;51.982;5.928;2023-10-08T06:22:12;102378.53;;;15.91;76.70
66945;BME280;53853;51.982;5.928;2023-10-08T06:24:42;102372.47;;;15.89;76.55
66945;BME280;53853;51.982;5.928;2023-10-08T06:27:12;102421.00;;;15.88;76.77
66945;BME280;53853;51.982;5.928;2023-10-08T06:29:44;102408.53;;;15.87;76.93
66945;BME280;53853;51.982;5.928;2023-10-08T06:32:13;102416.59;;;15.87;76.63
66945;BME280;53853;51.982;5.928;2023-10-08T06:34:47;102427.22;;;15.88;76.51
66945;BME280;53853;51.982;5.928;2023-10-08T06:37:19;102457.22;;;15.84;76.90
66945;BME280;53853;51.982;5.928;2023-10-08T06:39:50;102459.75;;;15.85;76.61
66945;BME280;53853;51.982;5.928;2023-10-08T06:42:24;102440.25;;;15.83;76.24
66945;BME280;53853;51.982;5.928;2023-10-08T06:44:56;102433.16;;;15.82;76.27
66945;BME280;53853;51.982;5.928;2023-10-08T06:47:28;102437.84;;;15.80;76.23
66945;BME280;53853;51.982;5.928;2023-10-08T06:49:59;102450.28;;;15.81;76.13
66945;BME280;53853;51.982;5.928;2023-10-08T06:52:34;102445.06;;;15.80;76.04
66945;BME280;53853;51.982;5.928;2023-10-08T06:55:05;102449.59;;;15.79;76.02
66945;BME280;53853;51.982;5.928;2023-10-08T06:57:38;102446.06;;;15.79;76.22
66945;BME280;53853;51.982;5.928;2023-10-08T07:00:10;102447.59;;;15.81;76.32
66945;BME280;53853;51.982;5.928;2023-10-08T07:03:01;102452.97;;;15.81;76.36
66945;BME280;53853;51.982;5.928;2023-10-08T07:05:33;102449.84;;;15.86;76.18
66945;BME280;53853;51.982;5.928;2023-10-08T07:08:11;102448.88;;;15.87;76.12
66945;BME280;53853;51.982;5.928;2023-10-08T07:10:42;102455.81;;;15.89;76.05
66945;BME280;53853;51.982;5.928;2023-10-08T07:13:13;102453.81;;;15.91;76.14
66945;BME280;53853;51.982;5.928;2023-10-08T07:15:44;102451.13;;;15.91;76.09
66945;BME280;53853;51.982;5.928;2023-10-08T07:18:14;102454.50;;;15.93;76.26
66945;BME280;53853;51.982;5.928;2023-10-08T07:20:52;102445.59;;;15.93;76.01
66945;BME280;53853;51.982;5.928;2023-10-08T07:23:31;102448.97;;;15.95;76.27
66945;BME280;53853;51.982;5.928;2023-10-08T07:26:02;102454.59;;;16.02;76.27
66945;BME280;53853;51.982;5.928;2023-10-08T07:28:37;102467.06;;;16.03;76.03
66945;BME280;53853;51.982;5.928;2023-10-08T07:31:13;102477.53;;;16.06;75.74
66945;BME280;53853;51.982;5.928;2023-10-08T07:33:45;102470.44;;;16.05;75.67
66945;BME280;53853;51.982;5.928;2023-10-08T07:36:43;102476.69;;;16.05;75.68
66945;BME280;53853;51.982;5.928;2023-10-08T07:39:16;102481.06;;;16.06;75.73
66945;BME280;53853;51.982;5.928;2023-10-08T07:42:01;102482.63;;;16.09;75.70
66945;BME280;53853;51.982;5.928;2023-10-08T07:44:32;102486.00;;;16.11;75.70
66945;BME280;53853;51.982;5.928;2023-10-08T07:47:03;102484.19;;;16.11;75.59
66945;BME280;53853;51.982;5.928;2023-10-08T07:49:37;102491.09;;;16.14;75.54
66945;BME280;53853;51.982;5.928;2023-10-08T07:52:07;102487.72;;;16.12;75.45
66945;BME280;53853;51.982;5.928;2023-10-08T07:54:45;102486.72;;;16.13;75.49
66945;BME280;53853;51.982;5.928;2023-10-08T07:57:15;102482.06;;;16.15;74.68
66945;BME280;53853;51.982;5.928;2023-10-08T07:59:52;102473.84;;;16.17;74.84
66945;BME280;53853;51.982;5.928;2023-10-08T08:02:43;102486.25;;;16.18;74.97
66945;BME280;53853;51.982;5.928;2023-10-08T08:05:13;102495.06;;;16.20;74.88
66945;BME280;53853;51.982;5.928;2023-10-08T08:07:44;102499.56;;;16.19;74.72
66945;BME280;53853;51.982;5.928;2023-10-08T08:10:19;102504.94;;;16.19;74.76
66945;BME280;53853;51.982;5.928;2023-10-08T08:12:50;102510.66;;;16.16;74.72
66945;BME280;53853;51.982;5.928;2023-10-08T08:15:23;102510.22;;;16.11;75.04
66945;BME280;53853;51.982;5.928;2023-10-08T08:17:55;102516.31;;;16.13;75.20
66945;BME280;53853;51.982;5.928;2023-10-08T08:20:25;102523.94;;;16.18;74.99
66945;BME280;53853;51.982;5.928;2023-10-08T08:23:01;102526.78;;;16.16;74.91
66945;BME280;53853;51.982;5.928;2023-10-08T08:25:39;102528.75;;;16.14;75.51
66945;BME280;53853;51.982;5.928;2023-10-08T08:28:32;102536.97;;;16.12;75.29
66945;BME280;53853;51.982;5.928;2023-10-08T08:31:03;102552.28;;;16.12;75.83
66945;BME280;53853;51.982;5.928;2023-10-08T08:33:41;102554.25;;;16.10;75.70
66945;BME280;53853;51.982;5.928;2023-10-08T08:36:24;102564.72;;;16.13;76.11
66945;BME280;53853;51.982;5.928;2023-10-08T08:38:54;102564.13;;;16.19;76.05
66945;BME280;53853;51.982;5.928;2023-10-08T08:41:27;102556.50;;;16.24;76.02
66945;BME280;53853;51.982;5.928;2023-10-08T08:43:57;102558.06;;;16.17;76.29
66945;BME280;53853;51.982;5.928;2023-10-08T08:46:33;102551.28;;;16.13;76.96
66945;BME280;53853;51.982;5.928;2023-10-08T08:49:06;102559.22;;;16.15;77.21
66945;BME280;53853;51.982;5.928;2023-10-08T08:51:37;102563.56;;;16.16;77.07
66945;BME280;53853;51.982;5.928;2023-10-08T08:54:08;102568.97;;;16.16;76.80
66945;BME280;53853;51.982;5.928;2023-10-08T08:56:42;102570.66;;;16.17;76.92
66945;BME280;53853;51.982;5.928;2023-10-08T08:59:13;102574.88;;;16.19;76.91
66945;BME280;53853;51.982;5.928;2023-10-08T09:01:45;102577.44;;;16.21;76.78
66945;BME280;53853;51.982;5.928;2023-10-08T09:04:18;102572.34;;;16.27;76.80
66945;BME280;53853;51.982;5.928;2023-10-08T09:06:58;102578.25;;;16.41;76.80
66945;BME280;53853;51.982;5.928;2023-10-08T09:09:34;102570.88;;;16.53;76.56
66945;BME280;53853;51.982;5.928;2023-10-08T09:12:10;102562.59;;;16.64;76.53
66945;BME280;53853;51.982;5.928;2023-10-08T09:14:41;102562.03;;;16.70;75.50
66945;BME280;53853;51.982;5.928;2023-10-08T09:17:11;102557.63;;;16.69;74.44
66945;BME280;53853;51.982;5.928;2023-10-08T09:19:42;102553.22;;;16.68;73.62
66945;BME280;53853;51.982;5.928;2023-10-08T09:22:12;102554.38;;;16.65;72.83
66945;BME280;53853;51.982;5.928;2023-10-08T09:24:47;102557.78;;;16.67;72.34
66945;BME280;53853;51.982;5.928;2023-10-08T09:27:21;102563.41;;;16.74;72.82
66945;BME280;53853;51.982;5.928;2023-10-08T09:29:51;102556.44;;;16.81;72.81
66945;BME280;53853;51.982;5.928;2023-10-08T09:32:22;102552.03;;;16.90;72.88
66945;BME280;53853;51.982;5.928;2023-10-08T09:34:53;102553.97;;;16.98;71.98
66945;BME280;53853;51.982;5.928;2023-10-08T09:37:23;102552.81;;;17.00;71.62
66945;BME280;53853;51.982;5.928;2023-10-08T09:39:55;102553.91;;;17.08;71.14
66945;BME280;53853;51.982;5.928;2023-10-08T09:42:28;102559.53;;;17.14;71.00
66945;BME280;53853;51.982;5.928;2023-10-08T09:44:58;102558.94;;;17.20;71.46
66945;BME280;53853;51.982;5.928;2023-10-08T09:47:36;102562.19;;;17.24;70.71
66945;BME280;53853;51.982;5.928;2023-10-08T09:50:09;102564.88;;;17.24;70.33
66945;BME280;53853;51.982;5.928;2023-10-08T09:52:42;102563.72;;;17.27;70.54
66945;BME280;53853;51.982;5.928;2023-10-08T09:55:19;102566.78;;;17.32;70.25
66945;BME280;53853;51.982;5.928;2023-10-08T09:57:51;102566.25;;;17.28;69.68
66945;BME280;53853;51.982;5.928;2023-10-08T10:00:22;102562.97;;;17.34;69.12
66945;BME280;53853;51.982;5.928;2023-10-08T10:02:59;102560.66;;;17.39;69.41
66945;BME280;53853;51.982;5.928;2023-10-08T10:05:31;102567.66;;;17.50;69.97
66945;BME280;53853;51.982;5.928;2023-10-08T10:08:03;102564.34;;;17.56;69.29
66945;BME280;53853;51.982;5.928;2023-10-08T10:10:37;102563.53;;;17.56;68.88
66945;BME280;53853;51.982;5.928;2023-10-08T10:13:17;102570.59;;;17.57;68.43
66945;BME280;53853;51.982;5.928;2023-10-08T10:15:48;102567.34;;;17.53;67.93
66945;BME280;53853;51.982;5.928;2023-10-08T10:18:28;102555.50;;;17.64;68.61
66945;BME280;53853;51.982;5.928;2023-10-08T10:20:59;102560.66;;;17.75;68.90
66945;BME280;53853;51.982;5.928;2023-10-08T10:23:37;102573.06;;;17.86;68.44
66945;BME280;53853;51.982;5.928;2023-10-08T10:26:23;102562.88;;;17.98;68.40
66945;BME280;53853;51.982;5.928;2023-10-08T10:29:20;102561.63;;;18.10;68.91
66945;BME280;53853;51.982;5.928;2023-10-08T10:31:54;102554.63;;;18.18;68.27
66945;BME280;53853;51.982;5.928;2023-10-08T10:34:26;102555.81;;;18.23;68.07
66945;BME280;53853;51.982;5.928;2023-10-08T10:36:58;102556.03;;;18.30;67.83
66945;BME280;53853;51.982;5.928;2023-10-08T10:39:35;102560.94;;;18.35;67.52
66945;BME280;53853;51.982;5.928;2023-10-08T10:42:08;102560.13;;;18.34;67.19
66945;BME280;53853;51.982;5.928;2023-10-08T10:44:50;102559.31;;;18.42;67.83
66945;BME280;53853;51.982;5.928;2023-10-08T10:47:20;102570.69;;;18.54;67.69
66945;BME280;53853;51.982;5.928;2023-10-08T10:49:55;102568.22;;;18.60;66.89
66945;BME280;53853;51.982;5.928;2023-10-08T10:52:45;102571.22;;;18.57;65.46
66945;BME280;53853;51.982;5.928;2023-10-08T10:55:19;102570.69;;;18.54;64.38
66945;BME280;53853;51.982;5.928;2023-10-08T10:57:58;102565.81;;;18.57;64.69
66945;BME280;53853;51.982;5.928;2023-10-08T11:00:33;102570.41;;;18.65;65.53
66945;BME280;53853;51.982;5.928;2023-10-08T11:03:24;102563.84;;;18.68;65.10
66945;BME280;53853;51.982;5.928;2023-10-08T11:05:57;102563.19;;;18.74;65.74
66945;BME280;53853;51.982;5.928;2023-10-08T11:08:33;102559.69;;;18.81;64.49
66945;BME280;53853;51.982;5.928;2023-10-08T11:11:12;102557.66;;;18.83;64.65
66945;BME280;53853;51.982;5.928;2023-10-08T11:13:44;102556.69;;;18.85;64.50
66945;BME280;53853;51.982;5.928;2023-10-08T11:16:24;102558.53;;;18.84;64.23
66945;BME280;53853;51.982;5.928;2023-10-08T11:18:54;102553.66;;;18.88;64.72
66945;BME280;53853;51.982;5.928;2023-10-08T11:21:28;102554.03;;;18.93;64.41
66945;BME280;53853;51.982;5.928;2023-10-08T11:24:00;102550.31;;;18.94;64.33
66945;BME280;53853;51.982;5.928;2023-10-08T11:26:36;102543.88;;;18.87;63.72
66945;BME280;53853;51.982;5.928;2023-10-08T11:29:21;102539.47;;;18.86;63.30
66945;BME280;53853;51.982;5.928;2023-10-08T11:31:55;102531.91;;;18.89;63.16
66945;BME280;53853;51.982;5.928;2023-10-08T11:34:32;102538.47;;;18.95;63.06
66945;BME280;53853;51.982;5.928;2023-10-08T11:37:06;102535.63;;;18.96;62.80
66945;BME280;53853;51.982;5.928;2023-10-08T11:39:47;102536.09;;;18.92;63.15
66945;BME280;53853;51.982;5.928;2023-10-08T11:42:19;102533.63;;;18.98;63.45
66945;BME280;53853;51.982;5.928;2023-10-08T11:45:02;102535.84;;;19.11;63.84
66945;BME280;53853;51.982;5.928;2023-10-08T11:47:47;102541.59;;;19.16;63.66
66945;BME280;53853;51.982;5.928;2023-10-08T11:50:25;102534.50;;;19.15;62.37
66945;BME280;53853;51.982;5.928;2023-10-08T11:53:03;102527.84;;;19.01;62.60
66945;BME280;53853;51.982;5.928;2023-10-08T11:55:34;102535.44;;;18.90;63.27
66945;BME280;53853;51.982;5.928;2023-10-08T11:58:06;102548.88;;;18.81;63.18
66945;BME280;53853;51.982;5.928;2023-10-08T12:00:44;102535.50;;;18.72;62.89
66945;BME280;53853;51.982;5.928;2023-10-08T12:03:21;102539.53;;;18.68;63.13
66945;BME280;53853;51.982;5.928;2023-10-08T12:05:53;102533.97;;;18.69;63.43
66945;BME280;53853;51.982;5.928;2023-10-08T12:08:26;102529.94;;;18.73;63.78
66945;BME280;53853;51.982;5.928;2023-10-08T12:10:57;102528.56;;;18.69;63.65
66945;BME280;53853;51.982;5.928;2023-10-08T12:13:27;102512.69;;;18.66;63.93
66945;BME280;53853;51.982;5.928;2023-10-08T12:15:58;102514.56;;;18.65;64.08
66945;BME280;53853;51.982;5.928;2023-10-08T12:18:35;102512.00;;;18.64;64.04
66945;BME280;53853;51.982;5.928;2023-10-08T12:21:09;102500.88;;;18.67;64.32
66945;BME280;53853;51.982;5.928;2023-10-08T12:23:42;102502.06;;;18.73;64.66
66945;BME280;53853;51.982;5.928;2023-10-08T12:26:13;102503.41;;;18.60;63.97
66945;BME280;53853;51.982;5.928;2023-10-08T12:28:46;102498.84;;;18.61;64.40
66945;BME280;53853;51.982;5.928;2023-10-08T12:31:16;102494.28;;;18.61;64.78
66945;BME280;53853;51.982;5.928;2023-10-08T12:33:51;102490.56;;;18.62;64.82
66945;BME280;53853;51.982;5.928;2023-10-08T12:36:24;102480.59;;;18.63;64.46
66945;BME280;53853;51.982;5.928;2023-10-08T12:38:59;102471.50;;;18.56;64.58
66945;BME280;53853;51.982;5.928;2023-10-08T12:41:35;102475.34;;;18.53;64.75
66945;BME280;53853;51.982;5.928;2023-10-08T12:44:05;102468.88;;;18.46;64.62
66945;BME280;53853;51.982;5.928;2023-10-08T12:46:36;102457.09;;;18.47;64.92
66945;BME280;53853;51.982;5.928;2023-10-08T12:49:11;102447.28;;;18.46;64.80
66945;BME280;53853;51.982;5.928;2023-10-08T12:51:41;102451.84;;;18.45;64.96
66945;BME280;53853;51.982;5.928;2023-10-08T12:54:12;102446.28;;;18.47;65.13
66945;BME280;53853;51.982;5.928;2023-10-08T12:56:48;102453.22;;;18.50;65.43
66945;BME280;53853;51.982;5.928;2023-10-08T12:59:21;102454.72;;;18.44;65.28
66945;BME280;53853;51.982;5.928;2023-10-08T13:01:51;102437.59;;;18.27;65.48
66945;BME280;53853;51.982;5.928;2023-10-08T13:04:24;102432.88;;;18.21;65.78
66945;BME280;53853;51.982;5.928;2023-10-08T13:06:56;102434.53;;;18.22;65.98
66945;BME280;53853;51.982;5.928;2023-10-08T13:09:28;102428.31;;;18.21;65.87
66945;BME280;53853;51.982;5.928;2023-10-08T13:11:58;102434.91;;;18.27;66.26
66945;BME280;53853;51.982;5.928;2023-10-08T13:14:29;102432.41;;;18.34;66.12
66945;BME280;53853;51.982;5.928;2023-10-08T13:17:01;102437.50;;;18.37;66.01
66945;BME280;53853;51.982;5.928;2023-10-08T13:19:40;102434.31;;;18.41;66.08
66945;BME280;53853;51.982;5.928;2023-10-08T13:22:12;102433.63;;;18.47;66.17
66945;BME280;53853;51.982;5.928;2023-10-08T13:24:46;102437.19;;;18.48;66.29
66945;BME280;53853;51.982;5.928;2023-10-08T13:27:16;102440.53;;;18.42;66.22
66945;BME280;53853;51.982;5.928;2023-10-08T13:29:46;102448.13;;;18.38;66.07
66945;BME280;53853;51.982;5.928;2023-10-08T13:32:15;102428.53;;;18.36;66.45